CYWA

Petawawa Airport

Petawawa, Ontario, Canada
METAR CYWA 120136Z AUTO 00000KT 7SM BKN009 OVC014 M05/M06 A2998
Observed Flight Rules
Dec-12 @ 01:36 UTC (16 minutes ago) Instrument Flight Rules
Visibility Clouds
7 miles
  • Broken at 900' AGL
  • Overcast at 1,400' AGL
Temperatures Readings
Current -5°C / 23°F
Dewpoint -6°C / 21°F
Humidity 93%
Altimeter 29.98" Hg
Pressure 1015 hPa
Elevation 130
METAR CYWA 120136Z AUTO 00000KT 7SM BKN009 OVC014 M05/M06 A2998
Observed Flight Rules
Dec-12 @ 01:36 UTC
(16 minutes ago)
IFR
Clouds
  • Broken at 900' AGL
  • Overcast at 1,400' AGL
Temperature Dewpoint
-5°C / 23°F -6°C / 21°F
Humidity Altimeter Pressure
93% 29.98" Hg 1015 hPa